sensor_id;sensor_type;location;lat;lon;timestamp;P1;durP1;ratioP1;P2;durP2;ratioP2
80799;SDS011;70202;52.238;10.680;2023-10-31T00:00:59;0.73;;;0.40;;
80799;SDS011;70202;52.238;10.680;2023-10-31T00:01:59;0.85;;;0.25;;
80799;SDS011;70202;52.238;10.680;2023-10-31T00:02:59;0.10;;;0.10;;
80799;SDS011;70202;52.238;10.680;2023-10-31T00:04:00;0.00;;;0.00;;
80799;SDS011;70202;52.238;10.680;2023-10-31T00:05:00;0.43;;;0.20;;
80799;SDS011;70202;52.238;10.680;2023-10-31T00:06:01;0.40;;;0.17;;
80799;SDS011;70202;52.238;10.680;2023-10-31T00:07:01;1.17;;;0.40;;
80799;SDS011;70202;52.238;10.680;2023-10-31T00:08:03;0.68;;;0.25;;
80799;SDS011;70202;52.238;10.680;2023-10-31T00:09:03;0.20;;;0.20;;
80799;SDS011;70202;52.238;10.680;2023-10-31T00:10:04;0.38;;;0.17;;
80799;SDS011;70202;52.238;10.680;2023-10-31T00:11:04;0.20;;;0.10;;
80799;SDS011;70202;52.238;10.680;2023-10-31T00:12:05;0.32;;;0.17;;
80799;SDS011;70202;52.238;10.680;2023-10-31T00:13:06;0.35;;;0.10;;
80799;SDS011;70202;52.238;10.680;2023-10-31T00:14:06;0.43;;;0.20;;
80799;SDS011;70202;52.238;10.680;2023-10-31T00:15:07;0.10;;;0.10;;
80799;SDS011;70202;52.238;10.680;2023-10-31T00:16:07;0.28;;;0.22;;
80799;SDS011;70202;52.238;10.680;2023-10-31T00:17:07;0.20;;;0.20;;
80799;SDS011;70202;52.238;10.680;2023-10-31T00:18:08;0.10;;;0.10;;
80799;SDS011;70202;52.238;10.680;2023-10-31T00:19:08;0.47;;;0.15;;
80799;SDS011;70202;52.238;10.680;2023-10-31T00:20:09;0.32;;;0.10;;
80799;SDS011;70202;52.238;10.680;2023-10-31T00:21:09;0.20;;;0.10;;
80799;SDS011;70202;52.238;10.680;2023-10-31T00:22:09;0.65;;;0.15;;
80799;SDS011;70202;52.238;10.680;2023-10-31T00:23:10;0.20;;;0.20;;
80799;SDS011;70202;52.238;10.680;2023-10-31T00:24:10;0.30;;;0.10;;
80799;SDS011;70202;52.238;10.680;2023-10-31T00:25:11;0.10;;;0.10;;
80799;SDS011;70202;52.238;10.680;2023-10-31T00:26:11;0.63;;;0.28;;
80799;SDS011;70202;52.238;10.680;2023-10-31T00:27:12;0.38;;;0.20;;
80799;SDS011;70202;52.238;10.680;2023-10-31T00:28:12;0.13;;;0.10;;
80799;SDS011;70202;52.238;10.680;2023-10-31T00:29:12;0.10;;;0.10;;
80799;SDS011;70202;52.238;10.680;2023-10-31T00:30:13;0.20;;;0.10;;
80799;SDS011;70202;52.238;10.680;2023-10-31T00:31:13;0.22;;;0.10;;
80799;SDS011;70202;52.238;10.680;2023-10-31T00:32:14;0.10;;;0.10;;
80799;SDS011;70202;52.238;10.680;2023-10-31T00:33:14;0.57;;;0.17;;
80799;SDS011;70202;52.238;10.680;2023-10-31T00:34:15;0.17;;;0.17;;
80799;SDS011;70202;52.238;10.680;2023-10-31T00:35:15;0.30;;;0.10;;
80799;SDS011;70202;52.238;10.680;2023-10-31T00:36:16;0.20;;;0.20;;
80799;SDS011;70202;52.238;10.680;2023-10-31T00:37:17;0.40;;;0.10;;
80799;SDS011;70202;52.238;10.680;2023-10-31T00:38:17;0.45;;;0.20;;
80799;SDS011;70202;52.238;10.680;2023-10-31T00:39:17;0.38;;;0.20;;
80799;SDS011;70202;52.238;10.680;2023-10-31T00:40:18;0.55;;;0.10;;
80799;SDS011;70202;52.238;10.680;2023-10-31T00:41:18;0.00;;;0.00;;
80799;SDS011;70202;52.238;10.680;2023-10-31T00:42:18;0.22;;;0.10;;
80799;SDS011;70202;52.238;10.680;2023-10-31T00:43:19;0.20;;;0.20;;
80799;SDS011;70202;52.238;10.680;2023-10-31T00:44:19;1.10;;;0.28;;
80799;SDS011;70202;52.238;10.680;2023-10-31T00:45:19;0.10;;;0.10;;
80799;SDS011;70202;52.238;10.680;2023-10-31T00:46:20;0.60;;;0.25;;
80799;SDS011;70202;52.238;10.680;2023-10-31T00:47:20;0.15;;;0.15;;
80799;SDS011;70202;52.238;10.680;2023-10-31T00:48:21;0.40;;;0.20;;
80799;SDS011;70202;52.238;10.680;2023-10-31T00:49:21;0.35;;;0.20;;
80799;SDS011;70202;52.238;10.680;2023-10-31T00:50:21;0.63;;;0.20;;
80799;SDS011;70202;52.238;10.680;2023-10-31T00:51:22;0.45;;;0.10;;
80799;SDS011;70202;52.238;10.680;2023-10-31T00:52:22;0.75;;;0.40;;
80799;SDS011;70202;52.238;10.680;2023-10-31T00:53:22;0.20;;;0.20;;
80799;SDS011;70202;52.238;10.680;2023-10-31T00:54:23;0.25;;;0.25;;
80799;SDS011;70202;52.238;10.680;2023-10-31T00:55:23;0.20;;;0.20;;
80799;SDS011;70202;52.238;10.680;2023-10-31T00:56:24;0.10;;;0.10;;
80799;SDS011;70202;52.238;10.680;2023-10-31T00:57:25;0.10;;;0.10;;
80799;SDS011;70202;52.238;10.680;2023-10-31T00:58:25;0.30;;;0.17;;
80799;SDS011;70202;52.238;10.680;2023-10-31T00:59:26;0.73;;;0.30;;
80799;SDS011;70202;52.238;10.680;2023-10-31T01:00:26;0.50;;;0.20;;
80799;SDS011;70202;52.238;10.680;2023-10-31T01:01:26;0.30;;;0.22;;
80799;SDS011;70202;52.238;10.680;2023-10-31T01:02:27;0.35;;;0.10;;
80799;SDS011;70202;52.238;10.680;2023-10-31T01:03:27;0.73;;;0.30;;
80799;SDS011;70202;52.238;10.680;2023-10-31T01:04:28;0.40;;;0.10;;
80799;SDS011;70202;52.238;10.680;2023-10-31T01:05:28;0.28;;;0.28;;
80799;SDS011;70202;52.238;10.680;2023-10-31T01:06:29;0.22;;;0.22;;
80799;SDS011;70202;52.238;10.680;2023-10-31T01:07:29;0.35;;;0.20;;
80799;SDS011;70202;52.238;10.680;2023-10-31T01:08:30;0.35;;;0.20;;
80799;SDS011;70202;52.238;10.680;2023-10-31T01:09:30;0.40;;;0.20;;
80799;SDS011;70202;52.238;10.680;2023-10-31T01:10:30;0.43;;;0.15;;
80799;SDS011;70202;52.238;10.680;2023-10-31T01:11:31;0.55;;;0.40;;
80799;SDS011;70202;52.238;10.680;2023-10-31T01:12:31;0.43;;;0.30;;
80799;SDS011;70202;52.238;10.680;2023-10-31T01:13:32;0.80;;;0.30;;
80799;SDS011;70202;52.238;10.680;2023-10-31T01:14:33;0.30;;;0.30;;
80799;SDS011;70202;52.238;10.680;2023-10-31T01:15:33;0.80;;;0.38;;
80799;SDS011;70202;52.238;10.680;2023-10-31T01:16:34;0.77;;;0.40;;
80799;SDS011;70202;52.238;10.680;2023-10-31T01:17:34;0.55;;;0.38;;
80799;SDS011;70202;52.238;10.680;2023-10-31T01:18:34;0.57;;;0.30;;
80799;SDS011;70202;52.238;10.680;2023-10-31T01:19:35;1.00;;;0.40;;
80799;SDS011;70202;52.238;10.680;2023-10-31T01:20:35;0.65;;;0.35;;
80799;SDS011;70202;52.238;10.680;2023-10-31T01:21:35;0.45;;;0.40;;
80799;SDS011;70202;52.238;10.680;2023-10-31T01:22:36;0.40;;;0.30;;
80799;SDS011;70202;52.238;10.680;2023-10-31T01:23:36;0.73;;;0.30;;
80799;SDS011;70202;52.238;10.680;2023-10-31T01:24:37;0.75;;;0.40;;
80799;SDS011;70202;52.238;10.680;2023-10-31T01:25:37;0.50;;;0.30;;
80799;SDS011;70202;52.238;10.680;2023-10-31T01:26:37;0.57;;;0.30;;
80799;SDS011;70202;52.238;10.680;2023-10-31T01:27:38;0.73;;;0.40;;
80799;SDS011;70202;52.238;10.680;2023-10-31T01:28:38;0.40;;;0.38;;
80799;SDS011;70202;52.238;10.680;2023-10-31T01:29:38;0.80;;;0.30;;
80799;SDS011;70202;52.238;10.680;2023-10-31T01:30:39;0.52;;;0.50;;
80799;SDS011;70202;52.238;10.680;2023-10-31T01:31:40;1.48;;;0.52;;
80799;SDS011;70202;52.238;10.680;2023-10-31T01:32:41;0.40;;;0.30;;
80799;SDS011;70202;52.238;10.680;2023-10-31T01:33:42;0.55;;;0.40;;
80799;SDS011;70202;52.238;10.680;2023-10-31T01:34:42;0.63;;;0.40;;
80799;SDS011;70202;52.238;10.680;2023-10-31T01:35:42;0.57;;;0.45;;
80799;SDS011;70202;52.238;10.680;2023-10-31T01:36:43;0.43;;;0.40;;
80799;SDS011;70202;52.238;10.680;2023-10-31T01:37:43;1.00;;;0.40;;
80799;SDS011;70202;52.238;10.680;2023-10-31T01:38:43;0.40;;;0.30;;
80799;SDS011;70202;52.238;10.680;2023-10-31T01:39:46;0.60;;;0.40;;
80799;SDS011;70202;52.238;10.680;2023-10-31T01:40:50;0.80;;;0.40;;
80799;SDS011;70202;52.238;10.680;2023-10-31T01:41:53;0.45;;;0.20;;
80799;SDS011;70202;52.238;10.680;2023-10-31T01:42:55;0.25;;;0.20;;
80799;SDS011;70202;52.238;10.680;2023-10-31T01:43:56;0.22;;;0.17;;
80799;SDS011;70202;52.238;10.680;2023-10-31T01:44:56;0.28;;;0.20;;
80799;SDS011;70202;52.238;10.680;2023-10-31T01:45:57;0.22;;;0.20;;
80799;SDS011;70202;52.238;10.680;2023-10-31T01:46:57;0.40;;;0.32;;
80799;SDS011;70202;52.238;10.680;2023-10-31T01:47:57;0.20;;;0.20;;
80799;SDS011;70202;52.238;10.680;2023-10-31T01:48:58;0.20;;;0.20;;
80799;SDS011;70202;52.238;10.680;2023-10-31T01:49:58;0.45;;;0.45;;
80799;SDS011;70202;52.238;10.680;2023-10-31T01:50:59;0.95;;;0.40;;
80799;SDS011;70202;52.238;10.680;2023-10-31T01:52:03;0.93;;;0.38;;
80799;SDS011;70202;52.238;10.680;2023-10-31T01:53:05;0.22;;;0.17;;
80799;SDS011;70202;52.238;10.680;2023-10-31T01:54:06;0.47;;;0.25;;
80799;SDS011;70202;52.238;10.680;2023-10-31T01:55:08;0.47;;;0.25;;
80799;SDS011;70202;52.238;10.680;2023-10-31T01:56:09;0.20;;;0.20;;
80799;SDS011;70202;52.238;10.680;2023-10-31T01:57:10;0.43;;;0.30;;
80799;SDS011;70202;52.238;10.680;2023-10-31T01:58:11;0.60;;;0.22;;
80799;SDS011;70202;52.238;10.680;2023-10-31T01:59:12;0.30;;;0.22;;
80799;SDS011;70202;52.238;10.680;2023-10-31T02:00:12;0.20;;;0.20;;
80799;SDS011;70202;52.238;10.680;2023-10-31T02:01:14;0.60;;;0.35;;
80799;SDS011;70202;52.238;10.680;2023-10-31T02:02:15;1.27;;;0.55;;
80799;SDS011;70202;52.238;10.680;2023-10-31T02:03:16;0.38;;;0.10;;
80799;SDS011;70202;52.238;10.680;2023-10-31T02:04:17;0.73;;;0.30;;
80799;SDS011;70202;52.238;10.680;2023-10-31T02:05:17;0.28;;;0.20;;
80799;SDS011;70202;52.238;10.680;2023-10-31T02:06:17;0.50;;;0.20;;
80799;SDS011;70202;52.238;10.680;2023-10-31T02:07:18;0.50;;;0.30;;
80799;SDS011;70202;52.238;10.680;2023-10-31T02:08:18;0.60;;;0.30;;
80799;SDS011;70202;52.238;10.680;2023-10-31T02:09:19;0.25;;;0.22;;
80799;SDS011;70202;52.238;10.680;2023-10-31T02:10:23;0.40;;;0.20;;
80799;SDS011;70202;52.238;10.680;2023-10-31T02:11:24;0.68;;;0.38;;
80799;SDS011;70202;52.238;10.680;2023-10-31T02:12:31;0.38;;;0.20;;
80799;SDS011;70202;52.238;10.680;2023-10-31T02:13:32;0.38;;;0.28;;
80799;SDS011;70202;52.238;10.680;2023-10-31T02:14:33;0.65;;;0.50;;
80799;SDS011;70202;52.238;10.680;2023-10-31T02:15:33;0.43;;;0.20;;
80799;SDS011;70202;52.238;10.680;2023-10-31T02:16:33;0.22;;;0.22;;
80799;SDS011;70202;52.238;10.680;2023-10-31T02:17:34;1.00;;;0.47;;
80799;SDS011;70202;52.238;10.680;2023-10-31T02:18:34;0.22;;;0.22;;
80799;SDS011;70202;52.238;10.680;2023-10-31T02:19:35;0.32;;;0.30;;
80799;SDS011;70202;52.238;10.680;2023-10-31T02:20:35;0.22;;;0.20;;
80799;SDS011;70202;52.238;10.680;2023-10-31T02:21:39;0.13;;;0.10;;
80799;SDS011;70202;52.238;10.680;2023-10-31T02:22:40;0.30;;;0.30;;
80799;SDS011;70202;52.238;10.680;2023-10-31T02:23:40;1.05;;;0.35;;
80799;SDS011;70202;52.238;10.680;2023-10-31T02:24:40;0.68;;;0.30;;
80799;SDS011;70202;52.238;10.680;2023-10-31T02:25:41;0.22;;;0.22;;
80799;SDS011;70202;52.238;10.680;2023-10-31T02:26:41;0.30;;;0.20;;
80799;SDS011;70202;52.238;10.680;2023-10-31T02:27:42;0.30;;;0.10;;
80799;SDS011;70202;52.238;10.680;2023-10-31T02:28:42;0.50;;;0.30;;
80799;SDS011;70202;52.238;10.680;2023-10-31T02:29:42;0.22;;;0.20;;
80799;SDS011;70202;52.238;10.680;2023-10-31T02:30:43;0.40;;;0.25;;
80799;SDS011;70202;52.238;10.680;2023-10-31T02:31:43;0.10;;;0.10;;
80799;SDS011;70202;52.238;10.680;2023-10-31T02:32:44;0.20;;;0.20;;
80799;SDS011;70202;52.238;10.680;2023-10-31T02:33:45;0.60;;;0.20;;
80799;SDS011;70202;52.238;10.680;2023-10-31T02:34:45;0.25;;;0.17;;
80799;SDS011;70202;52.238;10.680;2023-10-31T02:35:45;0.30;;;0.20;;
80799;SDS011;70202;52.238;10.680;2023-10-31T02:36:46;0.32;;;0.10;;
80799;SDS011;70202;52.238;10.680;2023-10-31T02:37:46;0.57;;;0.15;;
80799;SDS011;70202;52.238;10.680;2023-10-31T02:38:47;0.10;;;0.10;;
80799;SDS011;70202;52.238;10.680;2023-10-31T02:39:47;0.10;;;0.10;;
80799;SDS011;70202;52.238;10.680;2023-10-31T02:40:48;0.20;;;0.20;;
80799;SDS011;70202;52.238;10.680;2023-10-31T02:41:48;0.30;;;0.17;;
80799;SDS011;70202;52.238;10.680;2023-10-31T02:42:48;0.77;;;0.30;;
80799;SDS011;70202;52.238;10.680;2023-10-31T02:43:49;0.08;;;0.05;;
80799;SDS011;70202;52.238;10.680;2023-10-31T02:44:49;0.15;;;0.15;;
80799;SDS011;70202;52.238;10.680;2023-10-31T02:45:49;0.20;;;0.20;;
80799;SDS011;70202;52.238;10.680;2023-10-31T02:46:50;0.80;;;0.20;;
80799;SDS011;70202;52.238;10.680;2023-10-31T02:47:50;0.40;;;0.20;;
80799;SDS011;70202;52.238;10.680;2023-10-31T02:48:51;0.40;;;0.28;;
80799;SDS011;70202;52.238;10.680;2023-10-31T02:49:51;0.25;;;0.10;;
80799;SDS011;70202;52.238;10.680;2023-10-31T02:50:51;0.13;;;0.13;;
80799;SDS011;70202;52.238;10.680;2023-10-31T02:51:52;0.10;;;0.10;;
80799;SDS011;70202;52.238;10.680;2023-10-31T02:52:52;0.38;;;0.20;;
80799;SDS011;70202;52.238;10.680;2023-10-31T02:53:53;0.40;;;0.20;;
80799;SDS011;70202;52.238;10.680;2023-10-31T02:54:53;0.20;;;0.10;;
80799;SDS011;70202;52.238;10.680;2023-10-31T02:55:53;0.20;;;0.20;;
80799;SDS011;70202;52.238;10.680;2023-10-31T02:56:54;0.10;;;0.10;;
80799;SDS011;70202;52.238;10.680;2023-10-31T02:57:54;0.22;;;0.20;;
80799;SDS011;70202;52.238;10.680;2023-10-31T02:58:54;0.47;;;0.20;;
80799;SDS011;70202;52.238;10.680;2023-10-31T02:59:55;0.10;;;0.10;;
80799;SDS011;70202;52.238;10.680;2023-10-31T03:00:55;0.50;;;0.20;;
80799;SDS011;70202;52.238;10.680;2023-10-31T03:01:56;0.13;;;0.13;;
80799;SDS011;70202;52.238;10.680;2023-10-31T03:02:57;0.50;;;0.35;;
80799;SDS011;70202;52.238;10.680;2023-10-31T03:03:57;0.45;;;0.10;;
80799;SDS011;70202;52.238;10.680;2023-10-31T03:04:58;0.20;;;0.20;;
80799;SDS011;70202;52.238;10.680;2023-10-31T03:05:58;0.57;;;0.32;;
80799;SDS011;70202;52.238;10.680;2023-10-31T03:06:58;0.40;;;0.20;;
80799;SDS011;70202;52.238;10.680;2023-10-31T03:07:59;0.28;;;0.20;;
80799;SDS011;70202;52.238;10.680;2023-10-31T03:08:59;0.10;;;0.10;;
80799;SDS011;70202;52.238;10.680;2023-10-31T03:10:00;0.13;;;0.13;;
80799;SDS011;70202;52.238;10.680;2023-10-31T03:11:01;0.10;;;0.10;;
80799;SDS011;70202;52.238;10.680;2023-10-31T03:12:01;0.35;;;0.25;;
80799;SDS011;70202;52.238;10.680;2023-10-31T03:13:01;0.15;;;0.10;;
80799;SDS011;70202;52.238;10.680;2023-10-31T03:14:02;0.20;;;0.15;;
80799;SDS011;70202;52.238;10.680;2023-10-31T03:15:03;0.20;;;0.13;;
80799;SDS011;70202;52.238;10.680;2023-10-31T03:16:06;0.00;;;0.00;;
80799;SDS011;70202;52.238;10.680;2023-10-31T03:17:06;0.40;;;0.20;;
80799;SDS011;70202;52.238;10.680;2023-10-31T03:18:07;0.17;;;0.10;;
80799;SDS011;70202;52.238;10.680;2023-10-31T03:19:07;0.40;;;0.20;;
80799;SDS011;70202;52.238;10.680;2023-10-31T03:20:08;0.20;;;0.20;;
80799;SDS011;70202;52.238;10.680;2023-10-31T03:21:09;0.63;;;0.30;;
80799;SDS011;70202;52.238;10.680;2023-10-31T03:22:09;0.15;;;0.15;;
80799;SDS011;70202;52.238;10.680;2023-10-31T03:23:09;0.50;;;0.22;;
80799;SDS011;70202;52.238;10.680;2023-10-31T03:24:10;0.20;;;0.20;;
80799;SDS011;70202;52.238;10.680;2023-10-31T03:25:10;0.25;;;0.15;;
80799;SDS011;70202;52.238;10.680;2023-10-31T03:26:10;0.75;;;0.40;;
80799;SDS011;70202;52.238;10.680;2023-10-31T03:27:11;0.10;;;0.10;;
80799;SDS011;70202;52.238;10.680;2023-10-31T03:28:18;0.15;;;0.10;;
80799;SDS011;70202;52.238;10.680;2023-10-31T03:29:20;0.38;;;0.17;;
80799;SDS011;70202;52.238;10.680;2023-10-31T03:30:20;0.55;;;0.20;;
80799;SDS011;70202;52.238;10.680;2023-10-31T03:31:20;0.38;;;0.28;;
80799;SDS011;70202;52.238;10.680;2023-10-31T03:32:21;0.20;;;0.10;;
80799;SDS011;70202;52.238;10.680;2023-10-31T03:33:22;0.40;;;0.25;;
80799;SDS011;70202;52.238;10.680;2023-10-31T03:34:22;0.70;;;0.20;;
80799;SDS011;70202;52.238;10.680;2023-10-31T03:35:23;0.32;;;0.10;;
80799;SDS011;70202;52.238;10.680;2023-10-31T03:36:23;0.43;;;0.17;;
80799;SDS011;70202;52.238;10.680;2023-10-31T03:37:23;0.30;;;0.20;;
80799;SDS011;70202;52.238;10.680;2023-10-31T03:38:24;0.40;;;0.10;;
80799;SDS011;70202;52.238;10.680;2023-10-31T03:39:24;0.35;;;0.10;;
80799;SDS011;70202;52.238;10.680;2023-10-31T03:40:24;0.25;;;0.15;;
80799;SDS011;70202;52.238;10.680;2023-10-31T03:41:25;0.85;;;0.40;;
80799;SDS011;70202;52.238;10.680;2023-10-31T03:42:25;0.20;;;0.10;;
80799;SDS011;70202;52.238;10.680;2023-10-31T03:43:25;0.00;;;0.00;;
80799;SDS011;70202;52.238;10.680;2023-10-31T03:44:26;0.10;;;0.10;;
80799;SDS011;70202;52.238;10.680;2023-10-31T03:45:26;0.20;;;0.20;;
80799;SDS011;70202;52.238;10.680;2023-10-31T03:46:26;0.20;;;0.20;;
80799;SDS011;70202;52.238;10.680;2023-10-31T03:47:27;0.60;;;0.30;;
80799;SDS011;70202;52.238;10.680;2023-10-31T03:48:27;0.10;;;0.10;;
80799;SDS011;70202;52.238;10.680;2023-10-31T03:49:28;0.28;;;0.20;;
80799;SDS011;70202;52.238;10.680;2023-10-31T03:50:28;0.20;;;0.20;;
80799;SDS011;70202;52.238;10.680;2023-10-31T03:51:28;0.10;;;0.10;;
80799;SDS011;70202;52.238;10.680;2023-10-31T03:52:30;0.28;;;0.20;;
80799;SDS011;70202;52.238;10.680;2023-10-31T03:53:30;0.25;;;0.20;;
80799;SDS011;70202;52.238;10.680;2023-10-31T03:54:30;0.20;;;0.20;;
80799;SDS011;70202;52.238;10.680;2023-10-31T03:55:31;0.45;;;0.20;;
80799;SDS011;70202;52.238;10.680;2023-10-31T03:56:38;0.20;;;0.17;;
80799;SDS011;70202;52.238;10.680;2023-10-31T03:57:39;0.47;;;0.20;;
80799;SDS011;70202;52.238;10.680;2023-10-31T03:58:40;0.30;;;0.20;;
80799;SDS011;70202;52.238;10.680;2023-10-31T03:59:42;0.30;;;0.17;;
80799;SDS011;70202;52.238;10.680;2023-10-31T04:00:42;0.00;;;0.00;;
80799;SDS011;70202;52.238;10.680;2023-10-31T04:01:43;0.10;;;0.10;;
80799;SDS011;70202;52.238;10.680;2023-10-31T04:02:43;0.30;;;0.25;;
80799;SDS011;70202;52.238;10.680;2023-10-31T04:03:44;0.20;;;0.20;;
80799;SDS011;70202;52.238;10.680;2023-10-31T04:04:44;0.32;;;0.20;;
80799;SDS011;70202;52.238;10.680;2023-10-31T04:05:44;0.63;;;0.30;;
80799;SDS011;70202;52.238;10.680;2023-10-31T04:06:45;1.35;;;0.30;;
80799;SDS011;70202;52.238;10.680;2023-10-31T04:07:46;0.50;;;0.40;;
80799;SDS011;70202;52.238;10.680;2023-10-31T04:08:46;0.13;;;0.13;;
80799;SDS011;70202;52.238;10.680;2023-10-31T04:09:47;0.28;;;0.20;;
80799;SDS011;70202;52.238;10.680;2023-10-31T04:10:47;0.20;;;0.20;;
80799;SDS011;70202;52.238;10.680;2023-10-31T04:11:48;0.22;;;0.10;;
80799;SDS011;70202;52.238;10.680;2023-10-31T04:12:48;0.35;;;0.20;;
80799;SDS011;70202;52.238;10.680;2023-10-31T04:13:48;0.40;;;0.30;;
80799;SDS011;70202;52.238;10.680;2023-10-31T04:14:49;0.13;;;0.13;;
80799;SDS011;70202;52.238;10.680;2023-10-31T04:15:49;0.20;;;0.20;;
80799;SDS011;70202;52.238;10.680;2023-10-31T04:16:49;0.40;;;0.20;;
80799;SDS011;70202;52.238;10.680;2023-10-31T04:17:50;0.75;;;0.20;;
80799;SDS011;70202;52.238;10.680;2023-10-31T04:18:50;0.30;;;0.20;;
80799;SDS011;70202;52.238;10.680;2023-10-31T04:19:50;0.47;;;0.30;;
80799;SDS011;70202;52.238;10.680;2023-10-31T04:20:51;0.40;;;0.20;;
80799;SDS011;70202;52.238;10.680;2023-10-31T04:21:52;0.47;;;0.32;;
80799;SDS011;70202;52.238;10.680;2023-10-31T04:22:54;0.63;;;0.30;;
80799;SDS011;70202;52.238;10.680;2023-10-31T04:23:54;0.28;;;0.22;;
80799;SDS011;70202;52.238;10.680;2023-10-31T04:24:55;0.32;;;0.20;;
80799;SDS011;70202;52.238;10.680;2023-10-31T04:25:56;0.65;;;0.30;;
80799;SDS011;70202;52.238;10.680;2023-10-31T04:26:56;0.22;;;0.20;;
80799;SDS011;70202;52.238;10.680;2023-10-31T04:27:57;0.47;;;0.25;;
80799;SDS011;70202;52.238;10.680;2023-10-31T04:28:57;0.20;;;0.20;;
80799;SDS011;70202;52.238;10.680;2023-10-31T04:29:58;0.30;;;0.30;;
80799;SDS011;70202;52.238;10.680;2023-10-31T04:30:58;0.60;;;0.43;;
80799;SDS011;70202;52.238;10.680;2023-10-31T04:31:59;0.32;;;0.20;;
80799;SDS011;70202;52.238;10.680;2023-10-31T04:32:59;0.60;;;0.30;;
80799;SDS011;70202;52.238;10.680;2023-10-31T04:33:59;0.28;;;0.17;;
80799;SDS011;70202;52.238;10.680;2023-10-31T04:35:00;0.25;;;0.03;;
80799;SDS011;70202;52.238;10.680;2023-10-31T04:36:00;0.20;;;0.20;;
80799;SDS011;70202;52.238;10.680;2023-10-31T04:37:02;0.10;;;0.10;;
80799;SDS011;70202;52.238;10.680;2023-10-31T04:38:02;0.10;;;0.10;;
80799;SDS011;70202;52.238;10.680;2023-10-31T04:39:03;0.10;;;0.10;;
80799;SDS011;70202;52.238;10.680;2023-10-31T04:40:04;0.00;;;0.00;;
80799;SDS011;70202;52.238;10.680;2023-10-31T04:41:05;0.00;;;0.00;;
80799;SDS011;70202;52.238;10.680;2023-10-31T04:42:05;0.00;;;0.00;;
80799;SDS011;70202;52.238;10.680;2023-10-31T04:43:06;0.30;;;0.00;;
80799;SDS011;70202;52.238;10.680;2023-10-31T04:44:06;0.00;;;0.00;;
80799;SDS011;70202;52.238;10.680;2023-10-31T04:45:07;0.10;;;0.10;;
80799;SDS011;70202;52.238;10.680;2023-10-31T04:46:08;0.25;;;0.10;;
80799;SDS011;70202;52.238;10.680;2023-10-31T04:47:08;0.30;;;0.10;;
80799;SDS011;70202;52.238;10.680;2023-10-31T04:48:09;0.10;;;0.10;;
80799;SDS011;70202;52.238;10.680;2023-10-31T04:49:09;0.13;;;0.10;;
80799;SDS011;70202;52.238;10.680;2023-10-31T04:50:09;0.20;;;0.10;;
80799;SDS011;70202;52.238;10.680;2023-10-31T04:51:10;0.03;;;0.03;;
80799;SDS011;70202;52.238;10.680;2023-10-31T04:52:10;0.00;;;0.00;;
80799;SDS011;70202;52.238;10.680;2023-10-31T04:53:12;0.05;;;0.05;;
80799;SDS011;70202;52.238;10.680;2023-10-31T04:54:12;0.00;;;0.00;;
80799;SDS011;70202;52.238;10.680;2023-10-31T04:55:12;0.00;;;0.00;;
80799;SDS011;70202;52.238;10.680;2023-10-31T04:56:13;0.10;;;0.10;;
80799;SDS011;70202;52.238;10.680;2023-10-31T04:57:14;0.10;;;0.10;;
80799;SDS011;70202;52.238;10.680;2023-10-31T04:58:15;0.25;;;0.10;;
80799;SDS011;70202;52.238;10.680;2023-10-31T04:59:15;0.05;;;0.00;;
80799;SDS011;70202;52.238;10.680;2023-10-31T05:00:16;0.10;;;0.10;;
80799;SDS011;70202;52.238;10.680;2023-10-31T05:01:16;0.55;;;0.10;;
80799;SDS011;70202;52.238;10.680;2023-10-31T05:02:17;0.00;;;0.00;;
80799;SDS011;70202;52.238;10.680;2023-10-31T05:03:17;0.10;;;0.10;;
80799;SDS011;70202;52.238;10.680;2023-10-31T05:04:17;0.10;;;0.10;;
80799;SDS011;70202;52.238;10.680;2023-10-31T05:05:18;0.15;;;0.03;;
80799;SDS011;70202;52.238;10.680;2023-10-31T05:06:19;0.32;;;0.20;;
80799;SDS011;70202;52.238;10.680;2023-10-31T05:07:20;0.03;;;0.00;;
80799;SDS011;70202;52.238;10.680;2023-10-31T05:08:21;0.17;;;0.08;;
80799;SDS011;70202;52.238;10.680;2023-10-31T05:09:21;0.25;;;0.10;;
80799;SDS011;70202;52.238;10.680;2023-10-31T05:10:23;0.22;;;0.00;;
80799;SDS011;70202;52.238;10.680;2023-10-31T05:11:24;0.10;;;0.10;;
80799;SDS011;70202;52.238;10.680;2023-10-31T05:12:24;0.00;;;0.00;;
80799;SDS011;70202;52.238;10.680;2023-10-31T05:13:25;0.00;;;0.00;;
80799;SDS011;70202;52.238;10.680;2023-10-31T05:14:25;0.20;;;0.10;;
80799;SDS011;70202;52.238;10.680;2023-10-31T05:15:26;0.08;;;0.08;;
80799;SDS011;70202;52.238;10.680;2023-10-31T05:16:26;0.08;;;0.00;;
80799;SDS011;70202;52.238;10.680;2023-10-31T05:17:26;0.00;;;0.00;;
80799;SDS011;70202;52.238;10.680;2023-10-31T05:18:27;0.00;;;0.00;;
80799;SDS011;70202;52.238;10.680;2023-10-31T05:19:27;0.00;;;0.00;;
80799;SDS011;70202;52.238;10.680;2023-10-31T05:20:27;0.00;;;0.00;;
80799;SDS011;70202;52.238;10.680;2023-10-31T05:21:28;0.00;;;0.00;;
80799;SDS011;70202;52.238;10.680;2023-10-31T05:22:28;0.20;;;0.10;;
80799;SDS011;70202;52.238;10.680;2023-10-31T05:23:28;0.00;;;0.00;;
80799;SDS011;70202;52.238;10.680;2023-10-31T05:24:29;0.10;;;0.00;;
80799;SDS011;70202;52.238;10.680;2023-10-31T05:25:29;0.00;;;0.00;;
80799;SDS011;70202;52.238;10.680;2023-10-31T05:26:30;0.03;;;0.03;;
80799;SDS011;70202;52.238;10.680;2023-10-31T05:27:30;0.22;;;0.00;;
80799;SDS011;70202;52.238;10.680;2023-10-31T05:28:30;0.00;;;0.00;;
80799;SDS011;70202;52.238;10.680;2023-10-31T05:29:31;0.00;;;0.00;;
80799;SDS011;70202;52.238;10.680;2023-10-31T05:30:31;0.10;;;0.03;;
80799;SDS011;70202;52.238;10.680;2023-10-31T05:31:32;0.10;;;0.10;;
80799;SDS011;70202;52.238;10.680;2023-10-31T05:32:32;0.10;;;0.10;;
80799;SDS011;70202;52.238;10.680;2023-10-31T05:33:32;0.00;;;0.00;;
80799;SDS011;70202;52.238;10.680;2023-10-31T05:34:33;0.10;;;0.10;;
80799;SDS011;70202;52.238;10.680;2023-10-31T05:35:33;0.00;;;0.00;;
80799;SDS011;70202;52.238;10.680;2023-10-31T05:36:33;0.00;;;0.00;;
80799;SDS011;70202;52.238;10.680;2023-10-31T05:37:34;0.10;;;0.00;;
80799;SDS011;70202;52.238;10.680;2023-10-31T05:38:34;0.00;;;0.00;;
80799;SDS011;70202;52.238;10.680;2023-10-31T05:39:35;0.00;;;0.00;;
80799;SDS011;70202;52.238;10.680;2023-10-31T05:40:36;0.03;;;0.03;;
80799;SDS011;70202;52.238;10.680;2023-10-31T05:41:37;0.00;;;0.00;;
80799;SDS011;70202;52.238;10.680;2023-10-31T05:42:37;0.00;;;0.00;;
80799;SDS011;70202;52.238;10.680;2023-10-31T05:43:38;0.00;;;0.00;;
80799;SDS011;70202;52.238;10.680;2023-10-31T05:44:38;0.00;;;0.00;;
80799;SDS011;70202;52.238;10.680;2023-10-31T05:45:39;0.00;;;0.00;;
80799;SDS011;70202;52.238;10.680;2023-10-31T05:46:40;0.00;;;0.00;;
80799;SDS011;70202;52.238;10.680;2023-10-31T05:47:40;0.00;;;0.00;;
80799;SDS011;70202;52.238;10.680;2023-10-31T05:48:43;0.15;;;0.05;;
80799;SDS011;70202;52.238;10.680;2023-10-31T05:49:44;0.00;;;0.00;;
80799;SDS011;70202;52.238;10.680;2023-10-31T05:50:46;0.00;;;0.00;;
80799;SDS011;70202;52.238;10.680;2023-10-31T05:51:50;0.43;;;0.05;;
80799;SDS011;70202;52.238;10.680;2023-10-31T05:52:51;0.00;;;0.00;;
80799;SDS011;70202;52.238;10.680;2023-10-31T05:53:51;0.00;;;0.00;;
80799;SDS011;70202;52.238;10.680;2023-10-31T05:54:52;0.20;;;0.10;;
80799;SDS011;70202;52.238;10.680;2023-10-31T05:55:52;0.10;;;0.00;;
80799;SDS011;70202;52.238;10.680;2023-10-31T05:56:53;0.00;;;0.00;;
80799;SDS011;70202;52.238;10.680;2023-10-31T05:57:53;0.00;;;0.00;;
80799;SDS011;70202;52.238;10.680;2023-10-31T05:58:53;0.00;;;0.00;;
80799;SDS011;70202;52.238;10.680;2023-10-31T05:59:54;0.10;;;0.00;;